Time;durP1;ratioP1;P1;durP2;ratioP2;P2;SDS_P1;SDS_P2;PMS_P1;PMS_P2;Temp;Humidity;BMP_temperature;BMP_pressure;BME280_temperature;BME280_humidity;BME280_pressure;Samples;Min_cycle;Max_cycle;Signal;HPM_P1;HPM_P2
2024/01/29 00:00:24;;;;;;;3.80;3.40;;;;;;;-0.69;100.00;98352.09;107971;1286;138270;-86
2024/01/29 00:03:11;;;;;;;5.30;3.60;;;;;;;-0.72;100.00;98342.38;108354;1286;22530;-86
2024/01/29 00:05:38;;;;;;;5.60;3.70;;;;;;;-0.75;100.00;98337.21;108226;1271;22627;-86
2024/01/29 00:08:08;;;;;;;3.30;3.00;;;;;;;-0.75;100.00;98334.33;108300;1285;138073;-86
2024/01/29 00:10:35;;;;;;;4.10;3.10;;;;;;;-0.75;100.00;98329.89;108271;1285;25294;-87
2024/01/29 00:13:05;;;;;;;3.80;3.30;;;;;;;-0.75;100.00;98327.52;108157;1286;138645;-86
2024/01/29 00:15:37;;;;;;;3.00;2.80;;;;;;;-0.76;100.00;98327.55;108278;1285;22550;-86
2024/01/29 00:18:04;;;;;;;3.20;2.90;;;;;;;-0.77;100.00;98325.58;108185;1278;24202;-86
2024/01/29 00:20:31;;;;;;;4.00;3.50;;;;;;;-0.79;100.00;98320.89;108166;1278;138437;-86
2024/01/29 00:23:01;;;;;;;4.90;3.80;;;;;;;-0.79;100.00;98315.64;108312;1286;22533;-86
2024/01/29 00:25:28;;;;;;;4.80;3.60;;;;;;;-0.77;100.00;98319.27;108165;1285;138809;-86
2024/01/29 00:27:55;;;;;;;4.70;3.70;;;;;;;-0.77;100.00;98320.83;108244;1283;22586;-86
2024/01/29 00:30:22;;;;;;;3.60;3.30;;;;;;;-0.79;100.00;98318.00;108145;1285;138305;-85
2024/01/29 00:32:49;;;;;;;3.50;3.20;;;;;;;-0.81;100.00;98312.13;108158;1285;22562;-85
2024/01/29 00:35:16;;;;;;;2.60;2.40;;;;;;;-0.83;100.00;98307.24;108279;1286;22599;-86
2024/01/29 00:37:45;;;;;;;2.50;1.80;;;;;;;-0.85;100.00;98302.77;108178;1285;138330;-86
2024/01/29 00:40:13;;;;;;;2.00;1.80;;;;;;;-0.88;100.00;98300.33;108213;1285;23191;-86
2024/01/29 00:42:46;;;;;;;2.00;1.90;;;;;;;-0.88;100.00;98297.27;108134;1278;138481;-86
2024/01/29 00:45:16;;;;;;;1.90;1.80;;;;;;;-0.86;100.00;98292.07;108083;1285;22627;-86
2024/01/29 00:47:43;;;;;;;1.80;1.50;;;;;;;-0.84;100.00;98295.73;108277;1285;22534;-86
2024/01/29 00:50:10;;;;;;;1.60;1.50;;;;;;;-0.85;100.00;98290.00;108174;1278;138863;-86
2024/01/29 00:52:37;;;;;;;1.90;1.70;;;;;;;-0.87;100.00;98281.23;108207;1285;22658;-86
2024/01/29 00:55:07;;;;;;;2.20;1.80;;;;;;;-0.85;100.00;98280.65;108167;1282;138368;-86
2024/01/29 00:57:35;;;;;;;4.10;2.80;;;;;;;-0.83;100.00;98277.66;108297;1285;25423;-86
2024/01/29 01:00:14;;;;;;;3.90;3.10;;;;;;;-0.84;100.00;98278.91;108280;1285;25409;-86
2024/01/29 01:02:47;;;;;;;4.70;3.70;;;;;;;-0.86;100.00;98281.19;108176;1285;137036;-86
2024/01/29 01:05:14;;;;;;;3.40;3.00;;;;;;;-0.88;100.00;98284.70;108307;1285;23010;-86
2024/01/29 01:07:41;;;;;;;2.70;2.40;;;;;;;-0.93;100.00;98287.96;108091;1285;138329;-86
2024/01/29 01:10:08;;;;;;;2.20;2.00;;;;;;;-0.97;100.00;98289.64;108333;1285;22652;-86
2024/01/29 01:12:36;;;;;;;2.00;1.80;;;;;;;-0.98;100.00;98297.85;108156;1285;138395;-86
2024/01/29 01:15:04;;;;;;;1.60;1.50;;;;;;;-0.99;100.00;98302.99;108337;1285;22563;-86
2024/01/29 01:17:30;;;;;;;1.70;1.60;;;;;;;-0.97;100.00;98302.60;108113;1285;23906;-86
2024/01/29 01:19:57;;;;;;;2.60;1.50;;;;;;;-0.95;100.00;98300.84;108211;1285;138221;-86
2024/01/29 01:22:26;;;;;;;2.10;1.90;;;;;;;-0.96;100.00;98300.84;108332;1283;23256;-86
2024/01/29 01:24:53;;;;;;;1.90;1.70;;;;;;;-0.97;100.00;98306.17;108053;1285;138784;-85
2024/01/29 01:27:20;;;;;;;2.10;1.90;;;;;;;-0.98;100.00;98312.48;108267;1285;22579;-86
2024/01/29 01:29:47;;;;;;;2.00;1.80;;;;;;;-0.98;100.00;98315.55;108221;1286;22542;-86
2024/01/29 01:32:14;;;;;;;2.20;1.90;;;;;;;-0.98;100.00;98317.41;108147;1285;138829;-85
2024/01/29 01:34:41;;;;;;;2.10;1.80;;;;;;;-0.97;100.00;98316.55;108104;1268;22558;-86
2024/01/29 01:37:08;;;;;;;3.30;2.90;;;;;;;-0.95;100.00;98320.19;108126;1286;138235;-86
2024/01/29 01:39:35;;;;;;;2.30;2.00;;;;;;;-0.93;100.00;98322.83;108165;1286;22665;-86
2024/01/29 01:42:02;;;;;;;4.00;3.10;;;;;;;-0.89;100.00;98330.15;108264;1285;22556;-86
2024/01/29 01:44:30;;;;;;;8.30;4.60;;;;;;;-0.84;100.00;98340.64;108017;1285;194836;-86
2024/01/29 01:46:59;;;;;;;6.50;5.00;;;;;;;-0.80;100.00;98344.79;108284;1284;24241;-86
2024/01/29 01:49:28;;;;;;;5.00;4.00;;;;;;;-0.77;100.00;98353.30;108150;1285;138365;-86
2024/01/29 01:51:57;;;;;;;5.80;4.70;;;;;;;-0.74;100.00;98355.08;108578;1286;24137;-86
2024/01/29 01:54:28;;;;;;;4.40;3.40;;;;;;;-0.71;100.00;98363.09;108139;1279;138254;-85
2024/01/29 01:57:01;;;;;;;5.80;4.90;;;;;;;-0.69;100.00;98367.74;108294;1285;24229;-86
2024/01/29 01:59:28;;;;;;;4.30;3.50;;;;;;;-0.69;100.00;98370.14;108133;1285;28732;-86
2024/01/29 02:01:55;;;;;;;4.60;3.30;;;;;;;-0.73;100.00;98370.33;108193;1285;138481;-87
2024/01/29 02:04:23;;;;;;;5.60;3.90;;;;;;;-0.77;100.00;98367.25;108153;1280;22667;-86
2024/01/29 02:06:55;;;;;;;5.20;4.00;;;;;;;-0.77;100.00;98360.48;108195;1277;138683;-86
2024/01/29 02:09:22;;;;;;;9.30;6.70;;;;;;;-0.77;100.00;98353.31;108273;1285;22717;-86
2024/01/29 02:11:49;;;;;;;10.70;7.40;;;;;;;-0.85;100.00;98346.51;108239;1285;22701;-86
2024/01/29 02:14:15;;;;;;;7.80;5.90;;;;;;;-0.89;100.00;98343.93;108124;1285;139916;-86
2024/01/29 02:16:43;;;;;;;9.90;6.90;;;;;;;-0.91;100.00;98338.39;108162;1285;23483;-86
2024/01/29 02:19:19;;;;;;;10.10;7.50;;;;;;;-0.93;100.00;98338.15;108054;1285;138688;-85
2024/01/29 02:21:46;;;;;;;7.20;6.20;;;;;;;-0.95;100.00;98330.92;108263;1284;23763;-86
2024/01/29 02:24:13;;;;;;;6.10;5.20;;;;;;;-0.98;100.00;98332.75;108138;1286;22701;-86
2024/01/29 02:26:40;;;;;;;5.30;4.40;;;;;;;-1.02;100.00;98326.93;108200;1280;138513;-86
2024/01/29 02:29:07;;;;;;;6.20;4.70;;;;;;;-1.03;100.00;98326.48;108297;1285;26709;-86
2024/01/29 02:31:34;;;;;;;5.90;4.80;;;;;;;-1.07;100.00;98320.16;108197;1285;138644;-85
2024/01/29 02:34:01;;;;;;;5.80;4.70;;;;;;;-1.10;100.00;98315.05;108264;1285;22544;-86
2024/01/29 02:36:30;;;;;;;7.20;4.50;;;;;;;-1.12;100.00;98308.33;108128;1285;139565;-86
2024/01/29 02:38:57;;;;;;;5.70;3.60;;;;;;;-1.13;100.00;98314.15;108194;1278;22926;-85
2024/01/29 02:41:26;;;;;;;5.00;4.00;;;;;;;-1.15;100.00;98307.23;108472;1285;22550;-86
2024/01/29 02:43:56;;;;;;;5.80;4.60;;;;;;;-1.17;100.00;98309.20;108046;1285;138291;-86
2024/01/29 02:46:23;;;;;;;6.40;4.60;;;;;;;-1.20;100.00;98304.36;108336;1285;26605;-86
2024/01/29 02:48:50;;;;;;;9.00;6.50;;;;;;;-1.22;100.00;98298.67;108220;1285;138401;-85
2024/01/29 02:51:17;;;;;;;8.90;6.60;;;;;;;-1.22;100.00;98298.67;108315;1285;22667;-86
2024/01/29 02:53:44;;;;;;;7.10;5.60;;;;;;;-1.22;100.00;98297.63;108161;1285;22842;-85
2024/01/29 02:56:11;;;;;;;5.50;5.00;;;;;;;-1.22;100.00;98294.77;108143;1285;138171;-84
2024/01/29 02:58:44;;;;;;;4.40;3.70;;;;;;;-1.23;100.00;98292.91;108181;1285;22601;-86
2024/01/29 03:01:12;;;;;;;3.70;3.20;;;;;;;-1.23;100.00;98289.19;108182;1285;138664;-85
2024/01/29 03:03:41;;;;;;;2.80;2.60;;;;;;;-1.23;100.00;98289.21;108302;1285;22533;-86
2024/01/29 03:06:09;;;;;;;3.80;3.10;;;;;;;-1.22;100.00;98294.59;108276;1285;24165;-86
2024/01/29 03:08:35;;;;;;;4.80;3.70;;;;;;;-1.18;100.00;98292.42;108185;1286;138607;-86
2024/01/29 03:11:03;;;;;;;6.40;5.00;;;;;;;-1.18;100.00;98293.08;108293;1279;23123;-86
2024/01/29 03:13:32;;;;;;;8.00;5.30;;;;;;;-1.20;100.00;98291.77;108161;1285;138412;-85
2024/01/29 03:16:00;;;;;;;3.40;2.50;;;;;;;-1.23;100.00;98284.44;108293;1279;23204;-85
2024/01/29 03:18:29;;;;;;;2.60;2.20;;;;;;;-1.27;100.00;98281.35;108166;1284;138868;-86
2024/01/29 03:21:02;;;;;;;2.50;2.30;;;;;;;-1.28;100.00;98281.58;108287;1282;22612;-86
2024/01/29 03:23:28;;;;;;;;;;;;;;;-1.26;100.00;98278.79;108332;1283;24269;-86
2024/01/29 03:26:01;;;;;;;3.10;2.50;;;;;;;-1.27;100.00;98275.95;108288;1285;124591;-85
2024/01/29 03:28:31;;;;;;;;;;;;;;;-1.27;100.00;98278.84;108313;1285;22549;-85
2024/01/29 03:30:59;;;;;;;3.90;3.60;;;;;;;-1.28;100.00;98276.84;108310;1285;124781;-86
2024/01/29 03:33:26;;;;;;;4.00;3.10;;;;;;;-1.27;100.00;98282.22;108295;1285;22722;-86
2024/01/29 03:35:53;;;;;;;3.20;2.90;;;;;;;-1.27;100.00;98278.29;108260;1285;22605;-85
2024/01/29 03:38:20;;;;;;;2.40;2.20;;;;;;;-1.27;100.00;98281.72;108079;1286;138548;-86
2024/01/29 03:40:49;;;;;;;2.90;2.00;;;;;;;-1.29;100.00;98283.33;108254;1286;22661;-86
2024/01/29 03:43:16;;;;;;;1.90;1.70;;;;;;;-1.30;100.00;98284.55;108145;1285;138954;-86
2024/01/29 03:45:45;;;;;;;1.80;1.70;;;;;;;-1.30;100.00;98281.33;108316;1279;24370;-86
2024/01/29 03:48:12;;;;;;;1.80;1.70;;;;;;;-1.31;100.00;98280.84;108159;1285;24291;-86
2024/01/29 03:50:39;;;;;;;1.90;1.80;;;;;;;-1.31;100.00;98279.29;108218;1281;138305;-86
2024/01/29 03:53:09;;;;;;;1.80;1.70;;;;;;;-1.32;100.00;98276.97;108253;1285;23958;-86
2024/01/29 03:55:36;;;;;;;1.80;1.60;;;;;;;-1.31;100.00;98277.61;108169;1285;138611;-86
2024/01/29 03:58:03;;;;;;;1.80;1.70;;;;;;;-1.30;100.00;98276.58;108436;1282;25967;-86
2024/01/29 04:00:30;;;;;;;1.80;1.70;;;;;;;-1.30;100.00;98276.05;108219;1282;138539;-85
2024/01/29 04:03:01;;;;;;;1.70;1.60;;;;;;;-1.29;100.00;98272.11;108312;1285;22563;-86
2024/01/29 04:05:28;;;;;;;2.00;1.80;;;;;;;-1.28;100.00;98271.37;108166;1285;22606;-86
2024/01/29 04:07:55;;;;;;;2.00;1.80;;;;;;;-1.28;100.00;98267.62;108220;1285;138380;-86
2024/01/29 04:10:24;;;;;;;2.30;1.90;;;;;;;-1.27;100.00;98260.78;108283;1286;25518;-86
2024/01/29 04:12:51;;;;;;;1.90;1.80;;;;;;;-1.23;100.00;98260.98;108207;1285;138644;-85
2024/01/29 04:15:21;;;;;;;1.90;1.80;;;;;;;-1.22;100.00;98254.79;108272;1285;22556;-85
2024/01/29 04:17:50;;;;;;;2.60;1.70;;;;;;;-1.20;100.00;98253.86;108347;1267;22582;-86
2024/01/29 04:20:19;;;;;;;1.80;1.70;;;;;;;-1.20;100.00;98256.58;108217;1285;138333;-85
2024/01/29 04:22:46;;;;;;;1.60;1.50;;;;;;;-1.20;100.00;98254.73;108310;1285;22628;-85
2024/01/29 04:25:16;;;;;;;2.50;1.70;;;;;;;-1.19;100.00;98252.99;108292;1282;138632;-85
2024/01/29 04:27:43;;;;;;;1.60;1.50;;;;;;;-1.19;100.00;98252.80;108191;1282;22641;-86
2024/01/29 04:30:12;;;;;;;2.20;1.80;;;;;;;-1.19;100.00;98246.34;108329;1285;22633;-85
2024/01/29 04:32:42;;;;;;;1.80;1.70;;;;;;;-1.19;100.00;98249.77;108077;1277;138054;-85
2024/01/29 04:35:09;;;;;;;1.70;1.60;;;;;;;-1.20;100.00;98250.45;108289;1285;22965;-85
2024/01/29 04:37:36;;;;;;;1.50;1.40;;;;;;;-1.18;100.00;98251.09;108165;1285;138640;-86
2024/01/29 04:40:06;;;;;;;1.70;1.60;;;;;;;-1.18;100.00;98254.15;108247;1283;22598;-86
2024/01/29 04:42:33;;;;;;;1.60;1.40;;;;;;;-1.17;100.00;98254.44;108200;1286;137331;-86
2024/01/29 04:45:00;;;;;;;1.70;1.60;;;;;;;-1.17;100.00;98248.66;108313;1277;22779;-86
2024/01/29 04:47:27;;;;;;;2.20;1.90;;;;;;;-1.17;100.00;98247.83;108271;1285;22534;-86
2024/01/29 04:49:57;;;;;;;3.10;2.30;;;;;;;-1.18;100.00;98247.34;108251;1285;138948;-86
2024/01/29 04:52:24;;;;;;;3.00;2.00;;;;;;;-1.18;100.00;98247.02;108432;1285;23079;-85
2024/01/29 04:54:51;;;;;;;1.90;1.80;;;;;;;-1.20;100.00;98246.71;108176;1285;138569;-85
2024/01/29 04:57:20;;;;;;;1.50;1.40;;;;;;;-1.17;100.00;98245.42;108361;1285;22530;-86
2024/01/29 04:59:47;;;;;;;1.80;1.70;;;;;;;-1.15;100.00;98247.73;108198;1285;26810;-85
2024/01/29 05:02:17;;;;;;;1.40;1.40;;;;;;;-1.16;100.00;98247.23;108165;1285;138146;-85
2024/01/29 05:04:43;;;;;;;1.40;1.30;;;;;;;-1.15;100.00;98248.22;108223;1285;22874;-85
2024/01/29 05:07:13;;;;;;;1.40;1.20;;;;;;;-1.14;100.00;98246.14;108135;1285;138160;-85
2024/01/29 05:09:40;;;;;;;1.60;1.50;;;;;;;-1.13;100.00;98241.70;108248;1286;22570;-85
2024/01/29 05:12:07;;;;;;;1.60;1.50;;;;;;;-1.11;100.00;98245.70;108299;1280;22623;-85
2024/01/29 05:14:34;;;;;;;1.50;1.40;;;;;;;-1.11;100.00;98249.77;108067;1285;138180;-86
2024/01/29 05:17:01;;;;;;;1.60;1.50;;;;;;;-1.10;100.00;98249.05;108223;1286;22547;-85
2024/01/29 05:19:28;;;;;;;1.40;1.30;;;;;;;-1.10;100.00;98249.55;108348;1283;138353;-85
2024/01/29 05:21:55;;;;;;;1.70;1.60;;;;;;;-1.12;100.00;98251.17;108188;1286;22549;-86
2024/01/29 05:24:22;;;;;;;1.50;1.40;;;;;;;-1.13;100.00;98252.90;108193;1285;138297;-86
2024/01/29 05:26:49;;;;;;;3.10;1.70;;;;;;;-1.11;100.00;98259.83;108287;1282;22585;-86
2024/01/29 05:29:19;;;;;;;1.90;1.80;;;;;;;-1.13;100.00;98262.09;108281;1285;22536;-85
2024/01/29 05:31:48;;;;;;;1.80;1.70;;;;;;;-1.09;100.00;98267.54;108088;1286;138185;-85
2024/01/29 05:34:15;;;;;;;2.20;2.00;;;;;;;-1.10;100.00;98269.13;108200;1286;22668;-85
2024/01/29 05:36:42;;;;;;;1.70;1.60;;;;;;;-1.13;100.00;98275.05;108144;1280;138309;-85
2024/01/29 05:39:12;;;;;;;1.80;1.70;;;;;;;-1.14;100.00;98278.80;108268;1285;22556;-85
2024/01/29 05:41:39;;;;;;;1.90;1.80;;;;;;;-1.13;100.00;98282.52;108333;1285;25447;-86
2024/01/29 05:44:08;;;;;;;1.90;1.80;;;;;;;-1.10;100.00;98285.46;108183;1286;138636;-86
2024/01/29 05:46:38;;;;;;;25.80;9.70;;;;;;;-1.09;100.00;98288.45;108173;1285;22539;-85
2024/01/29 05:49:07;;;;;;;18.10;8.10;;;;;;;-1.14;100.00;98287.98;108206;1284;138480;-86
2024/01/29 05:51:34;;;;;;;15.40;8.80;;;;;;;-1.21;100.00;98286.90;108241;1282;22662;-86
2024/01/29 05:54:01;;;;;;;6.80;3.70;;;;;;;-1.24;100.00;98286.71;108304;1285;22586;-85
2024/01/29 05:56:28;;;;;;;4.10;2.60;;;;;;;-1.25;100.00;98288.61;108183;1285;138166;-85
2024/01/29 05:59:03;;;;;;;3.30;2.20;;;;;;;-1.25;100.00;98290.45;108310;1285;26483;-85
2024/01/29 06:01:30;;;;;;;2.80;2.60;;;;;;;-1.23;100.00;98289.38;108140;1285;138534;-85
2024/01/29 06:03:57;;;;;;;2.80;2.50;;;;;;;-1.23;100.00;98289.52;108230;1286;22578;-86
2024/01/29 06:06:28;;;;;;;3.40;2.30;;;;;;;-1.22;100.00;98288.79;108218;1285;138301;-86
2024/01/29 06:08:56;;;;;;;2.50;2.20;;;;;;;-1.19;100.00;98294.31;108263;1285;22544;-86
2024/01/29 06:11:23;;;;;;;1.90;1.70;;;;;;;-1.17;100.00;98296.60;108198;1285;22631;-85
2024/01/29 06:13:50;;;;;;;1.80;1.70;;;;;;;-1.15;100.00;98291.58;108175;1285;138634;-86
2024/01/29 06:16:28;;;;;;;1.70;1.60;;;;;;;-1.12;100.00;98296.77;108234;1286;22600;-85
2024/01/29 06:18:55;;;;;;;1.80;1.60;;;;;;;-1.10;100.00;98298.73;108149;1285;138436;-85
2024/01/29 06:21:22;;;;;;;1.70;1.60;;;;;;;-1.09;100.00;98297.13;108324;1285;24289;-85
2024/01/29 06:23:49;;;;;;;3.40;1.80;;;;;;;-1.07;100.00;98295.52;108272;1280;22639;-85
2024/01/29 06:26:16;;;;;;;2.20;2.00;;;;;;;-1.05;100.00;98293.58;108115;1285;138532;-84
2024/01/29 06:28:43;;;;;;;2.90;1.90;;;;;;;-1.04;100.00;98292.50;108254;1285;26671;-84
2024/01/29 06:31:10;;;;;;;2.70;1.80;;;;;;;-1.03;100.00;98295.70;108104;1286;138205;-84
2024/01/29 06:33:38;;;;;;;2.00;1.70;;;;;;;-1.01;100.00;98294.92;108192;1285;22646;-84
2024/01/29 06:36:06;;;;;;;1.60;1.50;;;;;;;-0.99;100.00;98296.71;108216;1285;22583;-85
2024/01/29 06:38:32;;;;;;;1.60;1.50;;;;;;;-0.99;100.00;98299.59;108283;1278;138082;-84
2024/01/29 06:40:59;;;;;;;1.50;1.40;;;;;;;-0.99;100.00;98300.45;108216;1285;22693;-84
2024/01/29 06:43:26;;;;;;;1.70;1.60;;;;;;;-0.98;100.00;98298.70;108082;1285;138134;-84
2024/01/29 06:45:53;;;;;;;1.50;1.40;;;;;;;-0.97;100.00;98303.77;108308;1285;22627;-84
2024/01/29 06:48:19;;;;;;;1.80;1.60;;;;;;;-0.95;100.00;98303.86;108262;1285;23935;-84
2024/01/29 06:50:46;;;;;;;1.90;1.70;;;;;;;-0.93;100.00;98300.02;108380;1283;22546;-84
2024/01/29 06:53:13;;;;;;;3.40;1.70;;;;;;;-0.92;100.00;98296.77;108125;1285;22543;-84
2024/01/29 06:55:40;;;;;;;1.50;1.40;;;;;;;-0.92;100.00;98291.66;108211;1280;138189;-84
2024/01/29 06:58:08;;;;;;;1.80;1.60;;;;;;;-0.91;100.00;98290.25;108168;1285;22643;-85
2024/01/29 07:00:37;;;;;;;1.50;1.40;;;;;;;-0.88;100.00;98291.66;108097;1285;139171;-85
2024/01/29 07:03:04;;;;;;;1.50;1.40;;;;;;;-0.86;100.00;98291.91;108182;1285;22704;-85
2024/01/29 07:05:31;;;;;;;1.20;1.20;;;;;;;-0.82;100.00;98292.79;108119;1285;24236;-85
2024/01/29 07:07:57;;;;;;;1.50;1.40;;;;;;;-0.79;100.00;98294.67;108115;1285;138338;-85
2024/01/29 07:10:24;;;;;;;1.30;1.20;;;;;;;-0.76;100.00;98298.30;108307;1284;22550;-85
2024/01/29 07:12:52;;;;;;;1.20;1.20;;;;;;;-0.75;100.00;98296.05;108152;1284;138483;-85
2024/01/29 07:15:18;;;;;;;1.50;1.40;;;;;;;-0.74;100.00;98294.96;108184;1285;22581;-84
2024/01/29 07:17:48;;;;;;;1.50;1.40;;;;;;;-0.70;100.00;98293.45;108296;1280;22586;-84
2024/01/29 07:20:15;;;;;;;1.20;1.20;;;;;;;-0.67;100.00;98291.96;108140;1283;138113;-84
2024/01/29 07:22:45;;;;;;;1.30;1.30;;;;;;;-0.64;100.00;98294.05;108292;1279;22652;-84
2024/01/29 07:25:12;;;;;;;1.30;1.30;;;;;;;-0.61;100.00;98289.67;108171;1285;138253;-84
2024/01/29 07:27:42;;;;;;;1.20;1.20;;;;;;;-0.59;100.00;98283.80;108215;1285;22625;-83
2024/01/29 07:30:09;;;;;;;1.40;1.30;;;;;;;-0.58;100.00;98283.42;108209;1285;22545;-84
2024/01/29 07:32:40;;;;;;;1.40;1.20;;;;;;;-0.56;100.00;98281.29;108129;1283;137971;-84
2024/01/29 07:35:07;;;;;;;1.10;1.10;;;;;;;-0.54;100.00;98282.39;108268;1284;22561;-84
2024/01/29 07:37:34;;;;;;;1.80;1.20;;;;;;;-0.52;100.00;98282.80;108075;1285;138575;-84
2024/01/29 07:40:03;;;;;;;1.20;1.20;;;;;;;-0.50;100.00;98282.21;108261;1278;22931;-84
2024/01/29 07:42:30;;;;;;;1.30;1.20;;;;;;;-0.50;100.00;98279.79;108039;1282;138654;-85
2024/01/29 07:44:57;;;;;;;1.30;1.20;;;;;;;-0.48;100.00;98280.75;108164;1278;22562;-84
2024/01/29 07:47:24;;;;;;;1.10;1.10;;;;;;;-0.46;100.00;98284.42;108319;1278;22550;-84
2024/01/29 07:49:51;;;;;;;1.20;1.10;;;;;;;-0.44;100.00;98283.49;108154;1285;138414;-84
2024/01/29 07:52:18;;;;;;;1.20;1.10;;;;;;;-0.42;100.00;98284.09;108305;1283;24324;-84
2024/01/29 07:54:45;;;;;;;1.40;1.30;;;;;;;-0.41;100.00;98286.43;108306;1278;138298;-84
2024/01/29 07:57:13;;;;;;;1.60;1.10;;;;;;;-0.40;100.00;98289.77;108382;1280;22678;-84
2024/01/29 07:59:43;;;;;;;1.30;1.20;;;;;;;-0.39;100.00;98288.89;108226;1278;22706;-84
2024/01/29 08:02:11;;;;;;;1.20;1.20;;;;;;;-0.38;100.00;98289.98;108176;1285;138644;-84
2024/01/29 08:04:38;;;;;;;1.30;1.20;;;;;;;-0.38;100.00;98289.13;108326;1283;22766;-85
2024/01/29 08:07:05;;;;;;;1.20;1.20;;;;;;;-0.36;100.00;98294.68;108272;1285;138738;-84
2024/01/29 08:09:32;;;;;;;1.20;1.20;;;;;;;-0.34;100.00;98294.94;108209;1283;24221;-84
2024/01/29 08:11:59;;;;;;;1.10;1.10;;;;;;;-0.33;100.00;98294.39;108343;1264;22594;-84
2024/01/29 08:14:26;;;;;;;1.10;1.00;;;;;;;-0.33;100.00;98295.23;108081;1285;138187;-84
2024/01/29 08:16:53;;;;;;;1.20;1.10;;;;;;;-0.32;100.00;98292.66;108314;1285;25591;-84
2024/01/29 08:19:19;;;;;;;3.20;2.40;;;;;;;-0.30;100.00;98297.70;108188;1284;138174;-84
2024/01/29 08:21:49;;;;;;;14.40;9.00;;;;;;;-0.31;100.00;98303.86;108251;1286;24379;-84
2024/01/29 08:24:16;;;;;;;73.80;26.60;;;;;;;-0.32;100.00;98304.41;108272;1284;22579;-84
2024/01/29 08:26:43;;;;;;;40.80;16.50;;;;;;;-0.33;100.00;98302.56;108118;1278;138515;-84
2024/01/29 08:29:10;;;;;;;24.20;9.20;;;;;;;-0.34;100.00;98302.95;108258;1278;22609;-84
2024/01/29 08:31:40;;;;;;;18.90;7.60;;;;;;;-0.37;100.00;98303.23;108179;1286;138531;-84
2024/01/29 08:34:07;;;;;;;8.40;4.20;;;;;;;-0.40;100.00;98304.75;108314;1283;25422;-84
2024/01/29 08:36:36;;;;;;;4.60;3.40;;;;;;;-0.41;100.00;98306.98;108163;1285;138312;-85
2024/01/29 08:39:08;;;;;;;3.90;2.20;;;;;;;-0.40;100.00;98308.48;108148;1285;24225;-84
2024/01/29 08:41:35;;;;;;;3.10;1.90;;;;;;;-0.41;100.00;98311.23;108277;1286;22553;-84
2024/01/29 08:44:06;;;;;;;1.90;1.50;;;;;;;-0.41;100.00;98308.89;108219;1285;138212;-84
2024/01/29 08:46:33;;;;;;;1.70;1.60;;;;;;;-0.42;100.00;98307.40;108265;1278;22547;-84
2024/01/29 08:49:00;;;;;;;1.40;1.30;;;;;;;-0.42;100.00;98305.69;108144;1283;138342;-84
2024/01/29 08:51:28;;;;;;;1.60;1.50;;;;;;;-0.42;100.00;98301.27;108287;1285;22638;-84
2024/01/29 08:53:56;;;;;;;1.60;1.50;;;;;;;-0.42;100.00;98299.38;108172;1285;22582;-84
2024/01/29 08:56:25;;;;;;;1.60;1.50;;;;;;;-0.41;100.00;98303.74;108145;1286;138619;-84
2024/01/29 08:58:53;;;;;;;1.40;1.30;;;;;;;-0.38;100.00;98305.30;108174;1283;22540;-84
2024/01/29 09:01:20;;;;;;;1.90;1.50;;;;;;;-0.33;100.00;98306.14;108244;1278;138818;-84
2024/01/29 09:03:47;;;;;;;1.70;1.60;;;;;;;-0.29;100.00;98305.79;108223;1284;26517;-84
2024/01/29 09:06:17;;;;;;;2.00;1.40;;;;;;;-0.23;100.00;98304.86;108258;1285;22558;-84
2024/01/29 09:08:44;;;;;;;1.70;1.60;;;;;;;-0.20;100.00;98299.59;108179;1280;138131;-84
2024/01/29 09:11:11;;;;;;;1.90;1.80;;;;;;;-0.17;100.00;98299.44;108250;1285;26844;-84
2024/01/29 09:13:38;;;;;;;1.90;1.60;;;;;;;-0.13;100.00;98302.69;108191;1285;138207;-84
2024/01/29 09:16:12;;;;;;;2.10;1.70;;;;;;;-0.08;100.00;98308.28;108561;1285;22597;-84
2024/01/29 09:18:41;;;;;;;4.90;2.90;;;;;;;-0.03;100.00;98312.27;108110;1286;138318;-84
2024/01/29 09:21:12;;;;;;;3.00;2.10;;;;;;;0.04;100.00;98314.71;108177;1285;22530;-84
2024/01/29 09:23:45;;;;;;;6.10;3.00;;;;;;;0.10;100.00;98318.87;108308;1262;22560;-84
2024/01/29 09:26:11;;;;;;;;;;;;;;;0.13;100.00;98314.95;108109;1285;137926;-84
2024/01/29 09:28:42;;;;;;;16.10;9.50;;;;;;;0.17;100.00;98309.48;108303;1285;22547;-84
2024/01/29 09:31:12;;;;;;;11.50;7.80;;;;;;;0.22;100.00;98304.52;108097;1284;138338;-84
2024/01/29 09:33:39;;;;;;;4.20;2.80;;;;;;;0.27;100.00;98303.77;108331;1262;22569;-84
2024/01/29 09:36:10;;;;;;;2.60;2.40;;;;;;;0.29;100.00;98300.44;108253;1286;23337;-84
2024/01/29 09:38:37;;;;;;;2.30;1.40;;;;;;;0.31;100.00;98297.92;108087;1283;138198;-84
2024/01/29 09:41:07;;;;;;;1.40;1.30;;;;;;;0.35;100.00;98294.35;108296;1285;22559;-84
2024/01/29 09:43:36;;;;;;;1.20;1.20;;;;;;;0.41;100.00;98294.76;108153;1285;138516;-84
2024/01/29 09:46:06;;;;;;;1.40;1.30;;;;;;;0.44;100.00;98290.84;108276;1285;22637;-84
2024/01/29 09:48:36;;;;;;;1.20;1.10;;;;;;;0.48;100.00;98289.98;108116;1272;138103;-85
2024/01/29 09:51:03;;;;;;;1.30;1.20;;;;;;;0.52;100.00;98284.86;108253;1278;22530;-84
2024/01/29 09:53:34;;;;;;;1.00;1.00;;;;;;;0.58;100.00;98283.52;108085;1276;22598;-84
2024/01/29 09:56:11;;;;;;;1.00;1.00;;;;;;;0.63;100.00;98280.38;108132;1285;138077;-84
2024/01/29 09:58:44;;;;;;;1.10;1.10;;;;;;;0.69;100.00;98281.31;108214;1283;22655;-85
2024/01/29 10:01:23;;;;;;;1.20;1.10;;;;;;;0.76;100.00;98279.44;108170;1284;138039;-84
2024/01/29 10:04:03;;;;;;;1.40;1.30;;;;;;;0.83;100.00;98279.61;108330;1285;23366;-84
2024/01/29 10:06:36;;;;;;;1.90;1.30;;;;;;;0.90;100.00;98282.48;108260;1285;138140;-84
2024/01/29 10:09:09;;;;;;;1.60;1.40;;;;;;;0.97;100.00;98280.09;108423;1285;24953;-84
2024/01/29 10:11:43;;;;;;;;;;;;;;;1.03;100.00;98280.02;108304;1285;24257;-85
2024/01/29 10:14:55;;;;;;;6.40;3.50;;;;;;;1.10;100.00;98280.30;108181;1277;124414;-84
2024/01/29 10:17:20;;;;;;;2.30;1.70;;;;;;;1.18;100.00;98283.84;108374;1278;22657;-84
2024/01/29 10:19:57;;;;;;;2.80;2.10;;;;;;;1.27;100.00;98286.11;108102;1285;138021;-85
2024/01/29 10:22:32;;;;;;;3.50;2.40;;;;;;;1.36;100.00;98287.05;108306;1285;23228;-84
2024/01/29 10:25:27;;;;;;;;;;;;;;;;;;;;;
2024/01/29 10:28:27;;;;;;;4.80;3.40;;;;;;;1.47;100.00;98277.56;108263;1285;23246;-85
2024/01/29 10:31:29;;;;;;;3.40;2.10;;;;;;;1.53;100.00;98279.82;108181;1285;138623;-85
2024/01/29 10:35:04;;;;;;;6.50;4.10;;;;;;;1.57;100.00;98279.10;108689;1278;22629;-85
2024/01/29 10:38:31;;;;;;;6.10;3.50;;;;;;;1.63;100.00;98279.84;108060;1285;138404;-84
2024/01/29 10:41:21;;;;;;;;;;;;;;;;;;;;;
2024/01/29 10:44:31;;;;;;;2.90;2.20;;;;;;;1.71;100.00;98269.12;108240;1281;138304;-84
2024/01/29 10:48:23;;;;;;;2.10;1.60;;;;;;;1.77;100.00;98270.52;108388;1280;22539;-84
2024/01/29 10:50:46;;;;;;;2.40;1.60;;;;;;;1.87;100.00;98275.00;108254;1285;138761;-84
2024/01/29 10:53:54;;;;;;;7.80;4.70;;;;;;;1.94;100.00;98274.57;108303;1285;22692;-85
2024/01/29 10:57:13;;;;;;;;;;;;;;;;;;;;;
2024/01/29 11:00:11;;;;;;;;;;;;;;;;;;;;;
2024/01/29 11:03:40;;;;;;;12.40;8.10;;;;;;;2.15;100.00;98264.77;108281;1285;138232;-84
2024/01/29 11:07:05;;;;;;;12.70;8.40;;;;;;;2.24;100.00;98264.90;108356;1280;24275;-84
2024/01/29 11:10:22;;;;;;;19.70;13.10;;;;;;;2.34;100.00;98267.60;108290;1286;26198;-84
2024/01/29 11:13:41;;;;;;;33.10;20.80;;;;;;;2.42;100.00;98269.40;108254;1280;138436;-84
2024/01/29 11:16:36;;;;;;;28.00;18.50;;;;;;;2.55;100.00;98265.59;108428;1285;23411;-84
2024/01/29 11:19:49;;;;;;;28.90;19.00;;;;;;;2.62;100.00;98260.41;108175;1285;139519;-84
2024/01/29 11:23:17;;;;;;;34.70;21.70;;;;;;;2.65;100.00;98259.06;108346;1280;22570;-84
2024/01/29 11:26:45;;;;;;;34.00;23.20;;;;;;;2.68;100.00;98258.88;108251;1285;138316;-85
2024/01/29 11:30:12;;;;;;;34.20;22.00;;;;;;;2.73;100.00;98256.89;108383;1285;22556;-84
2024/01/29 11:33:51;;;;;;;36.30;22.30;;;;;;;2.81;100.00;98262.44;108125;1285;138146;-84
2024/01/29 11:37:12;;;;;;;35.20;24.20;;;;;;;2.84;100.00;98266.70;108124;1285;25260;-84
2024/01/29 11:40:45;;;;;;;40.40;25.30;;;;;;;2.86;100.00;98262.42;108382;1285;22646;-84
2024/01/29 11:44:41;;;;;;;35.10;24.00;;;;;;;2.95;100.00;98262.43;108268;1277;138479;-84